createdAt,value
2022-10-18T00:00:52.604Z,102350.28
2022-10-18T00:03:20.316Z,102345.59
2022-10-18T00:05:48.440Z,102354.44
2022-10-18T00:08:17.751Z,102359.94
2022-10-18T00:10:45.770Z,102321.16
2022-10-18T00:13:13.829Z,102366.31
2022-10-18T00:15:50.150Z,102363.84
2022-10-18T00:18:18.357Z,102368.06
2022-10-18T00:20:46.384Z,102367.34
2022-10-18T00:23:14.117Z,102372.75
2022-10-18T00:25:41.900Z,102365.13
2022-10-18T00:28:09.645Z,102365.78
2022-10-18T00:30:37.568Z,102359.47
2022-10-18T00:33:06.660Z,102364.84
2022-10-18T00:35:35.691Z,102369.38
2022-10-18T00:38:03.385Z,102375.72
2022-10-18T00:40:31.047Z,102377.66
2022-10-18T00:42:58.813Z,102381.13
2022-10-18T00:45:27.250Z,102370.44
2022-10-18T00:47:59.462Z,102377.25
2022-10-18T00:50:33.516Z,102385.31
2022-10-18T00:53:04.429Z,102388.38
2022-10-18T00:55:34.277Z,102392.97
2022-10-18T00:58:02.696Z,102381.47
2022-10-18T01:00:30.682Z,102383.25
2022-10-18T01:03:00.142Z,102375.97
2022-10-18T01:05:29.399Z,102370.97
2022-10-18T01:08:15.888Z,102370.28
2022-10-18T01:10:53.427Z,102381.78
2022-10-18T01:13:33.195Z,102381.28
2022-10-18T01:16:10.219Z,102377.03
2022-10-18T01:18:43.341Z,102370.25
2022-10-18T01:21:29.616Z,102377.72
2022-10-18T01:24:27.436Z,102382.00
2022-10-18T01:27:28.962Z,102380.16
2022-10-18T01:30:19.215Z,102379.38
2022-10-18T01:32:52.982Z,102380.44
2022-10-18T01:35:24.438Z,102381.19
2022-10-18T01:37:56.104Z,102383.31
2022-10-18T01:40:25.650Z,102383.88
2022-10-18T01:42:53.943Z,102368.03
2022-10-18T01:45:24.341Z,102386.53
2022-10-18T01:47:55.383Z,102390.53
2022-10-18T01:50:30.824Z,102390.50
2022-10-18T01:52:59.331Z,102388.97
2022-10-18T01:55:35.110Z,102387.44
2022-10-18T01:58:10.515Z,102388.72
2022-10-18T02:00:42.815Z,102393.25
2022-10-18T02:03:22.097Z,102400.75
2022-10-18T02:05:55.754Z,102395.28
2022-10-18T02:08:30.027Z,102393.72
2022-10-18T02:11:02.191Z,102385.78
2022-10-18T02:13:34.378Z,102388.63
2022-10-18T02:16:07.329Z,102383.31
2022-10-18T02:18:40.724Z,102376.38
2022-10-18T02:21:11.852Z,102375.38
2022-10-18T02:23:40.033Z,102345.78
2022-10-18T02:26:08.143Z,102371.56
2022-10-18T02:28:35.967Z,102381.41
2022-10-18T02:31:11.746Z,102382.38
2022-10-18T02:33:46.835Z,102368.25
2022-10-18T02:36:19.387Z,102369.28
2022-10-18T02:38:48.496Z,102370.09
2022-10-18T02:41:24.562Z,102369.22
2022-10-18T02:43:52.312Z,102373.59
2022-10-18T02:46:20.592Z,102375.66
2022-10-18T02:48:50.271Z,102378.88
2022-10-18T02:51:18.104Z,102376.09
2022-10-18T02:53:45.820Z,102388.31
2022-10-18T02:56:13.555Z,102380.34
2022-10-18T02:58:41.225Z,102383.09
2022-10-18T03:01:09.006Z,102384.22
2022-10-18T03:03:36.722Z,102372.16
2022-10-18T03:06:06.086Z,102368.72
2022-10-18T03:08:33.784Z,102369.41
2022-10-18T03:11:01.492Z,102365.41
2022-10-18T03:15:58.009Z,102367.66
2022-10-18T03:18:25.827Z,102365.19
2022-10-18T03:20:53.483Z,102347.03
2022-10-18T03:23:22.624Z,102359.75
2022-10-18T03:25:50.291Z,102367.81
2022-10-18T03:28:17.936Z,102360.19
2022-10-18T03:30:45.626Z,102367.06
2022-10-18T03:33:13.357Z,102371.72
2022-10-18T03:35:41.161Z,102364.84
2022-10-18T03:38:08.879Z,102369.94
2022-10-18T03:40:38.118Z,102363.22
2022-10-18T03:43:05.738Z,102363.34
2022-10-18T03:45:33.492Z,102362.16
2022-10-18T03:48:01.216Z,102359.69
2022-10-18T03:50:28.952Z,102347.16
2022-10-18T03:52:56.644Z,102348.38
2022-10-18T03:55:24.576Z,102340.72
2022-10-18T03:57:53.623Z,102341.31
2022-10-18T04:00:21.466Z,102343.94
2022-10-18T04:02:52.021Z,102348.13
2022-10-18T04:05:24.326Z,102340.06
2022-10-18T04:07:52.022Z,102339.28
2022-10-18T04:10:19.877Z,102347.34
2022-10-18T04:12:47.675Z,102362.50
2022-10-18T04:15:16.997Z,102346.22
2022-10-18T04:17:44.694Z,102347.94
2022-10-18T04:20:13.344Z,102345.22
2022-10-18T04:22:41.134Z,102343.75
2022-10-18T04:25:08.997Z,102339.94
2022-10-18T04:27:37.235Z,102332.88
2022-10-18T04:30:05.884Z,102339.06
2022-10-18T04:32:35.456Z,102347.94
2022-10-18T04:35:03.269Z,102345.22
2022-10-18T04:37:31.325Z,102353.72
2022-10-18T04:39:59.433Z,102349.84
2022-10-18T04:42:27.357Z,102363.34
2022-10-18T04:44:55.180Z,102352.81
2022-10-18T04:47:22.920Z,102356.09
2022-10-18T04:49:51.999Z,102348.81
2022-10-18T04:52:20.201Z,102351.28
2022-10-18T04:54:47.869Z,102355.06
2022-10-18T04:57:15.528Z,102359.16
2022-10-18T04:59:43.308Z,102361.03
2022-10-18T05:02:11.105Z,102360.41
2022-10-18T05:04:38.851Z,102358.38
2022-10-18T05:07:07.961Z,102353.94
2022-10-18T05:09:35.806Z,102352.03
2022-10-18T05:12:03.590Z,102348.88
2022-10-18T05:14:31.342Z,102348.47
2022-10-18T05:16:59.014Z,102290.25
2022-10-18T05:19:26.620Z,102345.22
2022-10-18T05:21:54.330Z,102338.66
2022-10-18T05:24:26.872Z,102339.44
2022-10-18T05:26:56.046Z,102340.53
2022-10-18T05:29:24.390Z,102348.13
2022-10-18T05:31:52.244Z,102355.25
2022-10-18T05:34:20.675Z,102346.34
2022-10-18T05:36:49.473Z,102347.44
2022-10-18T05:39:17.135Z,102357.31
2022-10-18T05:41:46.217Z,102361.78
2022-10-18T05:44:13.830Z,102361.09
2022-10-18T05:46:41.643Z,102357.06
2022-10-18T05:49:11.197Z,102360.50
2022-10-18T05:51:38.977Z,102347.97
2022-10-18T05:54:06.962Z,102333.19
2022-10-18T05:56:34.738Z,102357.81
2022-10-18T05:59:05.094Z,102372.31
2022-10-18T06:01:32.866Z,102358.97
2022-10-18T06:04:00.617Z,102362.84
2022-10-18T06:06:28.391Z,102362.63
2022-10-18T06:08:56.234Z,102373.75
2022-10-18T06:11:24.203Z,102366.56
2022-10-18T06:13:53.258Z,102372.44
2022-10-18T06:16:27.275Z,102392.09
2022-10-18T06:18:59.884Z,102383.69
2022-10-18T06:21:27.850Z,102371.25
2022-10-18T06:23:58.389Z,102363.47
2022-10-18T06:26:27.225Z,102365.06
2022-10-18T06:28:54.952Z,102366.78
2022-10-18T06:31:24.074Z,102372.22
2022-10-18T06:33:51.753Z,102370.34
2022-10-18T06:36:22.054Z,102378.91
2022-10-18T06:38:50.553Z,102384.03
2022-10-18T06:41:19.352Z,102375.72
2022-10-18T06:43:49.824Z,102371.53
2022-10-18T06:46:17.742Z,102374.22
2022-10-18T06:48:46.923Z,102377.28
2022-10-18T06:51:15.195Z,102389.56
2022-10-18T06:53:53.467Z,102388.09
2022-10-18T06:56:31.116Z,102363.41
2022-10-18T07:01:31.658Z,102399.47
2022-10-18T07:04:00.812Z,102404.84
2022-10-18T07:06:28.676Z,102409.34
2022-10-18T07:08:57.062Z,102404.72
2022-10-18T07:11:27.106Z,102377.34
2022-10-18T07:14:00.703Z,102366.69
2022-10-18T07:16:28.518Z,102415.75
2022-10-18T07:18:56.464Z,102427.81
2022-10-18T07:21:27.392Z,102430.94
2022-10-18T07:23:55.249Z,102427.88
2022-10-18T07:26:24.792Z,102393.25
2022-10-18T07:28:55.860Z,102394.44
2022-10-18T07:31:24.059Z,102440.03
2022-10-18T07:33:52.019Z,102446.13
2022-10-18T07:36:21.270Z,102446.06
2022-10-18T07:38:51.877Z,102434.06
2022-10-18T07:41:20.082Z,102432.97
2022-10-18T07:43:51.888Z,102432.38
2022-10-18T07:46:20.778Z,102427.25
2022-10-18T07:48:48.588Z,102429.13
2022-10-18T07:51:16.621Z,102429.56
2022-10-18T07:53:44.739Z,102427.81
2022-10-18T07:56:16.914Z,102443.06
2022-10-18T07:58:44.884Z,102446.44
2022-10-18T08:01:13.675Z,102446.13
2022-10-18T08:03:42.938Z,102438.94
2022-10-18T08:06:12.814Z,102454.91
2022-10-18T08:08:41.765Z,102441.72
2022-10-18T08:11:11.516Z,102444.09
2022-10-18T08:13:40.682Z,102442.53
2022-10-18T08:16:10.672Z,102436.50
2022-10-18T08:18:39.271Z,102438.41
2022-10-18T08:21:08.729Z,102427.91
2022-10-18T08:23:37.208Z,102433.44
2022-10-18T08:26:06.414Z,102440.22
2022-10-18T08:28:36.678Z,102432.09
2022-10-18T08:31:06.332Z,102434.03
2022-10-18T08:33:35.748Z,102425.16
2022-10-18T08:36:06.084Z,102433.81
2022-10-18T08:38:34.450Z,102436.78
2022-10-18T08:41:07.783Z,102406.84
2022-10-18T08:43:42.795Z,102421.06
2022-10-18T08:46:13.872Z,102430.56
2022-10-18T08:48:45.263Z,102423.19
2022-10-18T08:51:24.003Z,102426.44
2022-10-18T08:54:00.204Z,102435.88
2022-10-18T08:56:28.231Z,102436.53
2022-10-18T08:58:56.354Z,102429.31
2022-10-18T09:01:41.243Z,102438.09
2022-10-18T09:04:23.937Z,102423.59
2022-10-18T09:07:01.765Z,102422.69
2022-10-18T09:09:37.996Z,102430.31
2022-10-18T09:12:21.155Z,102417.53
2022-10-18T09:15:04.966Z,102434.22
2022-10-18T09:17:45.346Z,102444.25
2022-10-18T09:20:22.989Z,102393.38
2022-10-18T09:22:55.238Z,102427.38
2022-10-18T09:25:24.984Z,102437.09
2022-10-18T09:27:55.617Z,102439.72
2022-10-18T09:30:45.293Z,102444.72
2022-10-18T09:33:34.540Z,102442.25
2022-10-18T09:36:04.233Z,102449.44
2022-10-18T09:38:38.858Z,102450.03
2022-10-18T09:41:09.775Z,102447.94
2022-10-18T09:43:48.497Z,102448.28
2022-10-18T09:46:18.046Z,102456.47
2022-10-18T09:48:52.354Z,102419.44
2022-10-18T09:51:23.125Z,102457.81
2022-10-18T09:54:04.686Z,102446.13
2022-10-18T09:56:41.072Z,102411.31
2022-10-18T09:59:26.941Z,102433.69
2022-10-18T10:01:54.886Z,102433.38
2022-10-18T10:04:24.042Z,102426.00
2022-10-18T10:06:53.448Z,102425.09
2022-10-18T10:09:29.298Z,102431.88
2022-10-18T10:11:57.715Z,102429.81
2022-10-18T10:14:27.327Z,102440.31
2022-10-18T10:16:56.935Z,102434.88
2022-10-18T10:19:32.476Z,102446.63
2022-10-18T10:22:05.140Z,102442.56
2022-10-18T10:24:49.802Z,102434.38
2022-10-18T10:27:24.798Z,102427.59
2022-10-18T10:29:57.725Z,102443.00
2022-10-18T10:32:29.612Z,102430.69
2022-10-18T10:34:59.732Z,102424.25
2022-10-18T10:37:34.373Z,102424.44
2022-10-18T10:40:18.885Z,102436.22
2022-10-18T10:43:04.277Z,102442.50
2022-10-18T10:45:56.196Z,102436.59
2022-10-18T10:48:26.282Z,102441.34
2022-10-18T10:51:05.964Z,102430.09
2022-10-18T10:53:44.949Z,102445.81
2022-10-18T10:56:21.933Z,102446.63
2022-10-18T10:58:50.068Z,102462.69
2022-10-18T11:01:21.245Z,102458.56
2022-10-18T11:03:51.218Z,102446.78
2022-10-18T11:06:53.155Z,102470.91
2022-10-18T11:09:31.030Z,102470.81
2022-10-18T11:12:19.214Z,102465.13
2022-10-18T11:14:52.196Z,102476.44
2022-10-18T11:17:26.335Z,102474.72
2022-10-18T11:20:03.519Z,102475.72
2022-10-18T11:22:38.704Z,102475.69
2022-10-18T11:25:07.062Z,102457.69
2022-10-18T11:27:40.357Z,102473.25
2022-10-18T11:30:25.860Z,102467.19
2022-10-18T11:33:00.443Z,102477.13
2022-10-18T11:35:38.769Z,102474.69
2022-10-18T11:38:19.438Z,102465.78
2022-10-18T11:40:57.457Z,102471.31
2022-10-18T11:43:50.552Z,102466.78
2022-10-18T11:46:32.151Z,102476.94
2022-10-18T11:49:11.525Z,102468.16
2022-10-18T11:52:09.246Z,102471.53
2022-10-18T11:55:13.082Z,102471.53
2022-10-18T11:57:47.501Z,102472.28
2022-10-18T12:03:12.194Z,102461.78
2022-10-18T12:05:42.351Z,102465.78
2022-10-18T12:08:14.361Z,102468.47
2022-10-18T12:11:03.840Z,102461.09
2022-10-18T12:13:38.099Z,102453.69
2022-10-18T12:16:08.070Z,102458.34
2022-10-18T12:18:43.347Z,102447.72
2022-10-18T12:21:13.210Z,102450.91
2022-10-18T12:23:50.566Z,102453.75
2022-10-18T12:26:20.572Z,102452.56
2022-10-18T12:28:55.889Z,102446.13
2022-10-18T12:31:27.483Z,102452.97
2022-10-18T12:33:59.459Z,102446.03
2022-10-18T12:36:45.258Z,102460.03
2022-10-18T12:39:29.062Z,102464.06
2022-10-18T12:42:19.820Z,102467.25
2022-10-18T12:44:48.745Z,102466.97
2022-10-18T12:47:24.101Z,102452.66
2022-10-18T12:49:58.959Z,102464.84
2022-10-18T12:52:29.172Z,102461.19
2022-10-18T12:55:07.360Z,102460.97
2022-10-18T12:58:21.852Z,102456.84
2022-10-18T13:00:55.076Z,102465.09
2022-10-18T13:03:54.520Z,102467.13
2022-10-18T13:06:24.017Z,102460.91
2022-10-18T13:09:20.682Z,102463.69
2022-10-18T13:11:48.852Z,102434.78
2022-10-18T13:15:05.684Z,102469.09
2022-10-18T13:17:50.501Z,102471.41
2022-10-18T13:20:27.318Z,102473.84
2022-10-18T13:23:08.351Z,102476.69
2022-10-18T13:25:50.084Z,102473.66
2022-10-18T13:28:30.718Z,102464.06
2022-10-18T13:31:10.045Z,102463.94
2022-10-18T13:33:40.056Z,102436.72
2022-10-18T13:36:23.228Z,102408.75
2022-10-18T13:39:03.276Z,102477.03
2022-10-18T13:41:35.330Z,102480.31
2022-10-18T13:44:25.302Z,102475.00
2022-10-18T13:47:38.205Z,102486.34
2022-10-18T13:50:36.432Z,102470.91
2022-10-18T13:53:28.850Z,102489.03
2022-10-18T13:56:11.501Z,102483.66
2022-10-18T13:59:05.888Z,102482.19
2022-10-18T14:01:50.692Z,102455.03
2022-10-18T14:04:44.111Z,102490.66
2022-10-18T14:07:12.983Z,102491.94
2022-10-18T14:09:48.884Z,102488.97
2022-10-18T14:12:27.606Z,102481.28
2022-10-18T14:15:00.595Z,102486.31
2022-10-18T14:17:35.178Z,102483.38
2022-10-18T14:20:17.771Z,102462.03
2022-10-18T14:22:50.719Z,102491.97
2022-10-18T14:25:26.822Z,102495.44
2022-10-18T14:28:08.937Z,102492.56
2022-10-18T14:30:52.695Z,102488.94
2022-10-18T14:33:33.924Z,102492.59
2022-10-18T14:36:10.423Z,102491.06
2022-10-18T14:38:48.867Z,102496.66
2022-10-18T14:41:19.208Z,102492.94
2022-10-18T14:43:48.220Z,102496.44
2022-10-18T14:46:25.998Z,102490.78
2022-10-18T14:48:56.388Z,102498.38
2022-10-18T14:51:26.179Z,102493.75
2022-10-18T14:53:54.612Z,102497.00
2022-10-18T14:56:27.326Z,102496.59
2022-10-18T14:58:56.991Z,102502.28
2022-10-18T15:01:29.283Z,102497.19
2022-10-18T15:03:58.895Z,102458.31
2022-10-18T15:06:28.483Z,102502.13
2022-10-18T15:08:59.306Z,102510.91
2022-10-18T15:11:28.596Z,102507.69
2022-10-18T15:13:59.147Z,102509.31
2022-10-18T15:16:30.065Z,102467.63
2022-10-18T15:19:06.214Z,102517.50
2022-10-18T15:21:36.444Z,102512.41
2022-10-18T15:24:21.024Z,102515.03
2022-10-18T15:26:50.828Z,102506.34
2022-10-18T15:29:20.676Z,102489.16
2022-10-18T15:31:49.348Z,102507.75
2022-10-18T15:34:20.603Z,102504.09
2022-10-18T15:36:51.131Z,102505.97
2022-10-18T15:39:21.441Z,102509.31
2022-10-18T15:41:50.785Z,102493.00
2022-10-18T15:44:27.837Z,102500.03
2022-10-18T15:46:58.159Z,102503.41
2022-10-18T15:49:58.167Z,102505.47
2022-10-18T15:52:39.621Z,102513.25
2022-10-18T15:55:46.671Z,102509.34
2022-10-18T15:58:22.232Z,102494.94
2022-10-18T16:00:51.614Z,102501.72
2022-10-18T16:03:22.053Z,102508.22
2022-10-18T16:05:49.919Z,102506.16
2022-10-18T16:08:25.221Z,102502.97
2022-10-18T16:10:53.084Z,102498.72
2022-10-18T16:13:20.944Z,102491.53
2022-10-18T16:15:48.825Z,102496.59
2022-10-18T16:18:19.129Z,102491.41
2022-10-18T16:20:47.534Z,102488.19
2022-10-18T16:23:18.853Z,102492.75
2022-10-18T16:25:48.874Z,102506.22
2022-10-18T16:28:18.995Z,102507.75
2022-10-18T16:30:56.082Z,102514.59
2022-10-18T16:33:24.634Z,102518.81
2022-10-18T16:35:53.070Z,102511.19
2022-10-18T16:38:31.105Z,102515.91
2022-10-18T16:41:04.502Z,102529.97
2022-10-18T16:43:32.459Z,102516.88
2022-10-18T16:46:00.460Z,102525.69
2022-10-18T16:48:28.947Z,102521.38
2022-10-18T16:50:57.962Z,102528.38
2022-10-18T16:53:26.295Z,102490.59
2022-10-18T16:55:56.264Z,102460.75
2022-10-18T16:58:26.103Z,102521.69
2022-10-18T17:00:54.322Z,102542.25
2022-10-18T17:03:22.088Z,102546.13
2022-10-18T17:05:49.840Z,102552.94
2022-10-18T17:08:20.336Z,102548.59
2022-10-18T17:10:49.650Z,102548.66
2022-10-18T17:13:17.826Z,102546.53
2022-10-18T17:15:47.183Z,102550.06
2022-10-18T17:18:18.448Z,102555.16
2022-10-18T17:20:46.922Z,102557.66
2022-10-18T17:23:14.807Z,102551.66
2022-10-18T17:25:57.538Z,102554.22
2022-10-18T17:28:32.757Z,102547.34
2022-10-18T17:31:01.943Z,102554.03
2022-10-18T17:33:29.660Z,102504.91
2022-10-18T17:35:57.362Z,102555.09
2022-10-18T17:38:25.215Z,102560.53
2022-10-18T17:40:53.369Z,102572.84
2022-10-18T17:43:21.302Z,102561.53
2022-10-18T17:45:49.233Z,102569.75
2022-10-18T17:48:18.744Z,102564.91
2022-10-18T17:50:46.625Z,102570.28
2022-10-18T17:53:16.616Z,102582.16
2022-10-18T17:55:44.377Z,102576.56
2022-10-18T17:58:12.074Z,102587.63
2022-10-18T18:00:40.109Z,102593.00
2022-10-18T18:03:07.865Z,102596.38
2022-10-18T18:05:36.977Z,102600.53
2022-10-18T18:08:04.760Z,102595.19
2022-10-18T18:10:33.651Z,102604.44
2022-10-18T18:13:01.634Z,102605.75
2022-10-18T18:15:29.373Z,102606.81
2022-10-18T18:17:58.094Z,102608.50
2022-10-18T18:20:26.164Z,102604.91
2022-10-18T18:22:55.518Z,102578.59
2022-10-18T18:25:23.298Z,102523.16
2022-10-18T18:27:51.011Z,102612.84
2022-10-18T18:30:19.000Z,102611.56
2022-10-18T18:32:46.710Z,102605.56
2022-10-18T18:35:14.518Z,102605.81
2022-10-18T18:37:42.346Z,102604.94
2022-10-18T18:40:12.020Z,102597.25
2022-10-18T18:42:39.751Z,102594.63
2022-10-18T18:45:08.214Z,102591.88
2022-10-18T18:47:36.250Z,102594.25
2022-10-18T18:50:04.042Z,102588.41
2022-10-18T18:52:32.021Z,102585.72
2022-10-18T18:55:00.036Z,102584.41
2022-10-18T18:57:29.313Z,102589.06
2022-10-18T18:59:57.086Z,102586.63
2022-10-18T19:02:24.824Z,102583.50
2022-10-18T19:04:52.606Z,102600.34
2022-10-18T19:07:20.424Z,102599.88
2022-10-18T19:09:50.532Z,102601.72
2022-10-18T19:12:20.608Z,102593.28
2022-10-18T19:14:50.625Z,102599.78
2022-10-18T19:17:18.508Z,102599.41
2022-10-18T19:19:46.725Z,102593.97
2022-10-18T19:22:14.621Z,102593.47
2022-10-18T19:24:42.843Z,102603.06
2022-10-18T19:27:12.531Z,102598.00
2022-10-18T19:29:42.109Z,102598.81
2022-10-18T19:32:13.463Z,102599.97
2022-10-18T19:34:41.670Z,102535.25
2022-10-18T19:37:10.680Z,102595.34
2022-10-18T19:39:39.264Z,102602.47
2022-10-18T19:42:09.844Z,102603.47
2022-10-18T19:44:38.621Z,102599.97
2022-10-18T19:47:08.200Z,102607.97
2022-10-18T19:49:37.617Z,102618.25
2022-10-18T19:52:05.618Z,102610.50
2022-10-18T19:54:33.921Z,102607.22
2022-10-18T19:57:02.172Z,102574.66
2022-10-18T19:59:30.343Z,102616.19
2022-10-18T20:02:00.491Z,102614.75
2022-10-18T20:04:34.228Z,102623.56
2022-10-18T20:07:03.949Z,102622.72
2022-10-18T20:09:32.448Z,102624.41
2022-10-18T20:12:00.184Z,102632.00
2022-10-18T20:14:27.957Z,102630.94
2022-10-18T20:16:56.327Z,102643.84
2022-10-18T20:19:24.250Z,102625.72
2022-10-18T20:21:52.393Z,102630.81
2022-10-18T20:24:21.540Z,102638.66
2022-10-18T20:26:49.309Z,102642.91
2022-10-18T20:29:17.198Z,102643.84
2022-10-18T20:31:45.073Z,102652.69
2022-10-18T20:34:13.541Z,102651.78
2022-10-18T20:36:42.914Z,102657.66
2022-10-18T20:39:10.936Z,102654.50
2022-10-18T20:41:41.707Z,102653.84
2022-10-18T20:44:13.923Z,102596.84
2022-10-18T20:46:42.082Z,102649.72
2022-10-18T20:49:13.558Z,102652.09
2022-10-18T20:51:41.903Z,102656.00
2022-10-18T20:54:10.500Z,102652.59
2022-10-18T20:56:40.680Z,102662.09
2022-10-18T20:59:10.232Z,102656.84
2022-10-18T21:01:39.657Z,102652.28
2022-10-18T21:04:09.651Z,102653.50
2022-10-18T21:06:40.190Z,102624.06
2022-10-18T21:09:09.556Z,102647.09
2022-10-18T21:11:38.949Z,102644.41
2022-10-18T21:14:08.789Z,102564.91
2022-10-18T21:16:37.047Z,102621.94
2022-10-18T21:19:05.294Z,102645.56
2022-10-18T21:21:33.685Z,102646.53
2022-10-18T21:24:04.059Z,102642.13
2022-10-18T21:26:35.274Z,102647.34
2022-10-18T21:29:03.473Z,102655.06
2022-10-18T21:31:34.722Z,102652.41
2022-10-18T21:34:04.153Z,102648.13
2022-10-18T21:36:33.817Z,102649.06
2022-10-18T21:39:02.799Z,102612.13
2022-10-18T21:41:32.104Z,102657.03
2022-10-18T21:43:59.869Z,102656.81
2022-10-18T21:46:27.947Z,102629.91
2022-10-18T21:48:58.401Z,102648.13
2022-10-18T21:51:27.970Z,102645.56
2022-10-18T21:53:57.938Z,102632.44
2022-10-18T21:56:27.969Z,102627.38
2022-10-18T21:58:56.532Z,102623.91
2022-10-18T22:01:26.554Z,102619.06
2022-10-18T22:03:56.204Z,102620.84
2022-10-18T22:06:26.360Z,102574.75
2022-10-18T22:08:56.232Z,102607.72
2022-10-18T22:11:26.763Z,102634.34
2022-10-18T22:13:55.296Z,102613.59
2022-10-18T22:16:23.143Z,102646.75
2022-10-18T22:18:52.041Z,102638.56
2022-10-18T22:21:21.490Z,102645.56
2022-10-18T22:23:52.601Z,102616.03
2022-10-18T22:26:22.728Z,102641.31
2022-10-18T22:28:56.114Z,102632.66
2022-10-18T22:31:26.484Z,102636.03
2022-10-18T22:33:55.503Z,102636.06
2022-10-18T22:36:23.294Z,102638.63
2022-10-18T22:38:52.676Z,102639.25
2022-10-18T22:41:20.613Z,102640.16
2022-10-18T22:43:48.393Z,102634.16
2022-10-18T22:46:16.663Z,102632.31
2022-10-18T22:48:45.366Z,102621.84
2022-10-18T22:51:13.808Z,102623.44
2022-10-18T22:53:42.286Z,102629.31
2022-10-18T22:56:13.584Z,102576.56
2022-10-18T22:58:41.267Z,102618.22
2022-10-18T23:01:11.153Z,102624.25
2022-10-18T23:03:39.811Z,102624.31
2022-10-18T23:06:20.561Z,102577.50
2022-10-18T23:08:48.731Z,102562.78
2022-10-18T23:11:18.427Z,102616.34
2022-10-18T23:13:46.967Z,102610.91
2022-10-18T23:16:15.298Z,102597.03
2022-10-18T23:18:43.075Z,102567.84
2022-10-18T23:21:13.141Z,102607.72
2022-10-18T23:23:42.905Z,102610.38
2022-10-18T23:26:12.515Z,102607.91
2022-10-18T23:28:43.228Z,102606.03
2022-10-18T23:31:13.582Z,102618.19
2022-10-18T23:33:41.767Z,102625.13
2022-10-18T23:36:10.561Z,102617.31
2022-10-18T23:38:40.043Z,102620.03
2022-10-18T23:41:09.304Z,102619.06
2022-10-18T23:43:37.699Z,102617.22
2022-10-18T23:46:07.066Z,102613.00
2022-10-18T23:48:35.128Z,102616.63
2022-10-18T23:51:03.251Z,102618.38
2022-10-18T23:53:31.330Z,102615.78
2022-10-18T23:56:01.233Z,102620.09
2022-10-18T23:58:31.435Z,102580.44
